createdAt,value
2019-02-27T00:01:18.930Z,3.67
2019-02-27T00:03:46.864Z,3.90
2019-02-27T00:06:15.875Z,4.13
2019-02-27T00:08:43.973Z,3.90
2019-02-27T00:11:12.395Z,3.97
2019-02-27T00:13:40.818Z,4.17
2019-02-27T00:16:10.820Z,4.10
2019-02-27T00:18:38.560Z,4.37
2019-02-27T00:21:10.051Z,4.30
2019-02-27T00:23:36.185Z,4.40
2019-02-27T00:26:04.105Z,4.60
2019-02-27T00:28:32.035Z,4.53
2019-02-27T00:30:59.873Z,4.50
2019-02-27T00:33:28.794Z,4.33
2019-02-27T00:35:56.636Z,4.83
2019-02-27T00:38:25.175Z,5.50
2019-02-27T00:40:53.906Z,5.53
2019-02-27T00:43:21.569Z,5.00
2019-02-27T00:45:49.445Z,5.33
2019-02-27T00:48:17.356Z,4.70
2019-02-27T00:50:45.278Z,5.37
2019-02-27T00:53:13.115Z,5.33
2019-02-27T00:55:41.080Z,5.47
2019-02-27T00:58:08.962Z,5.63
2019-02-27T01:00:39.309Z,5.80
2019-02-27T01:03:06.655Z,5.47
2019-02-27T01:05:34.515Z,5.90
2019-02-27T01:08:02.373Z,5.87
2019-02-27T01:10:30.303Z,6.30
2019-02-27T01:12:58.756Z,5.87
2019-02-27T01:15:26.797Z,6.07
2019-02-27T01:17:55.032Z,5.83
2019-02-27T01:20:24.472Z,5.13
2019-02-27T01:22:52.237Z,5.63
2019-02-27T01:25:23.146Z,5.53
2019-02-27T01:27:51.567Z,6.27
2019-02-27T01:30:19.421Z,6.10
2019-02-27T01:32:47.349Z,6.07
2019-02-27T01:35:18.113Z,6.07
2019-02-27T01:37:45.883Z,6.27
2019-02-27T01:40:17.212Z,5.50
2019-02-27T01:42:43.564Z,5.57
2019-02-27T01:45:12.647Z,4.90
2019-02-27T01:47:40.575Z,5.47
2019-02-27T01:50:24.833Z,5.37
2019-02-27T01:52:52.800Z,4.97
2019-02-27T01:55:22.407Z,5.57
2019-02-27T01:57:50.526Z,5.13
2019-02-27T02:00:22.927Z,5.53
2019-02-27T02:02:48.199Z,5.30
2019-02-27T02:05:16.372Z,5.07
2019-02-27T02:07:45.917Z,5.03
2019-02-27T02:10:13.722Z,5.07
2019-02-27T02:12:42.213Z,5.93
2019-02-27T02:15:21.328Z,5.67
2019-02-27T02:18:03.461Z,5.00
2019-02-27T02:21:01.676Z,5.13
2019-02-27T02:24:04.003Z,5.03
2019-02-27T02:26:49.646Z,5.63
2019-02-27T02:29:35.472Z,5.87
2019-02-27T02:32:24.076Z,5.53
2019-02-27T02:35:20.182Z,4.40
2019-02-27T02:38:13.994Z,5.17
2019-02-27T02:41:01.359Z,5.47
2019-02-27T02:43:48.460Z,4.97
2019-02-27T02:46:44.864Z,5.00
2019-02-27T02:49:26.029Z,4.90
2019-02-27T02:51:56.917Z,4.93
2019-02-27T02:54:47.150Z,4.47
2019-02-27T02:57:36.274Z,4.70
2019-02-27T03:00:17.400Z,4.77
2019-02-27T03:02:48.696Z,5.10
2019-02-27T03:05:35.868Z,4.70
2019-02-27T03:08:22.930Z,5.27
2019-02-27T03:11:18.165Z,5.30
2019-02-27T03:14:01.566Z,5.67
2019-02-27T03:16:54.652Z,5.87
2019-02-27T03:19:29.340Z,5.00
2019-02-27T03:22:04.783Z,6.17
2019-02-27T03:25:05.563Z,5.50
2019-02-27T03:27:46.463Z,5.77
2019-02-27T03:30:39.674Z,5.47
2019-02-27T03:33:27.295Z,5.90
2019-02-27T03:36:20.881Z,6.47
2019-02-27T03:39:18.093Z,6.30
2019-02-27T03:42:11.671Z,5.83
2019-02-27T03:44:55.822Z,5.70
2019-02-27T03:47:44.384Z,5.47
2019-02-27T03:50:31.578Z,5.17
2019-02-27T03:53:02.542Z,5.30
2019-02-27T03:55:43.025Z,5.27
2019-02-27T03:58:39.433Z,4.27
2019-02-27T04:01:19.592Z,5.33
2019-02-27T04:04:12.544Z,5.00
2019-02-27T04:06:59.592Z,5.40
2019-02-27T04:09:27.744Z,4.70
2019-02-27T04:11:55.590Z,4.63
2019-02-27T04:14:30.289Z,4.63
2019-02-27T04:16:58.135Z,4.77
2019-02-27T04:19:25.951Z,4.87
2019-02-27T04:21:53.875Z,5.10
2019-02-27T04:24:22.582Z,5.03
2019-02-27T04:26:50.970Z,5.00
2019-02-27T04:29:18.922Z,5.43
2019-02-27T04:31:46.808Z,5.00
2019-02-27T04:34:14.684Z,5.47
2019-02-27T04:36:46.987Z,4.80
2019-02-27T04:39:12.360Z,4.87
2019-02-27T04:41:40.220Z,5.57
2019-02-27T04:44:08.156Z,5.00
2019-02-27T04:46:35.960Z,5.00
2019-02-27T04:49:04.962Z,5.53
2019-02-27T04:51:33.104Z,4.77
2019-02-27T04:54:01.079Z,5.13
2019-02-27T04:56:28.946Z,5.43
2019-02-27T04:58:56.955Z,4.70
2019-02-27T05:01:24.807Z,5.20
2019-02-27T05:03:52.768Z,3.83
2019-02-27T05:06:20.788Z,4.07
2019-02-27T05:08:48.597Z,4.20
2019-02-27T05:11:16.584Z,4.53
2019-02-27T05:13:44.497Z,3.80
2019-02-27T05:16:14.195Z,4.30
2019-02-27T05:18:42.212Z,4.33
2019-02-27T05:21:10.143Z,3.67
2019-02-27T05:23:38.112Z,3.80
2019-02-27T05:26:05.923Z,4.17
2019-02-27T05:28:34.995Z,4.27
2019-02-27T05:31:03.488Z,3.80
2019-02-27T05:33:35.685Z,4.63
2019-02-27T05:36:01.039Z,4.43
2019-02-27T05:38:28.928Z,4.70
2019-02-27T05:40:59.885Z,4.97
2019-02-27T05:43:26.568Z,5.37
2019-02-27T05:45:54.498Z,4.10
2019-02-27T05:48:22.352Z,4.30
2019-02-27T05:50:50.454Z,3.73
2019-02-27T05:53:22.129Z,4.00
2019-02-27T05:55:48.075Z,3.53
2019-02-27T05:58:16.011Z,4.33
2019-02-27T06:00:44.031Z,6.27
2019-02-27T06:03:11.993Z,4.70
2019-02-27T06:05:39.913Z,4.07
2019-02-27T06:08:07.806Z,4.23
2019-02-27T06:10:35.692Z,4.73
2019-02-27T06:13:03.590Z,4.17
2019-02-27T06:15:31.424Z,4.30
2019-02-27T06:17:59.187Z,5.80
2019-02-27T06:20:27.080Z,9.30
2019-02-27T06:22:55.035Z,10.03
2019-02-27T06:25:23.927Z,9.20
2019-02-27T06:27:52.038Z,10.67
2019-02-27T06:30:19.950Z,11.17
2019-02-27T06:32:47.817Z,11.20
2019-02-27T06:35:15.859Z,10.93
2019-02-27T06:37:43.642Z,11.40
2019-02-27T06:40:12.305Z,10.10
2019-02-27T06:42:40.279Z,10.15
2019-02-27T06:45:10.234Z,8.40
2019-02-27T06:47:38.379Z,7.80
2019-02-27T06:50:07.132Z,7.53
2019-02-27T06:52:35.029Z,7.43
2019-02-27T06:55:02.813Z,7.40
2019-02-27T06:57:30.728Z,7.90
2019-02-27T07:00:02.216Z,6.30
2019-02-27T07:02:28.575Z,4.40
2019-02-27T07:04:56.592Z,4.70
2019-02-27T07:07:24.583Z,4.83
2019-02-27T07:09:52.462Z,4.73
2019-02-27T07:12:21.787Z,4.53
2019-02-27T07:14:50.038Z,4.50
2019-02-27T07:17:17.894Z,4.87
2019-02-27T07:19:47.398Z,4.93
2019-02-27T07:22:15.403Z,5.70
2019-02-27T07:24:43.239Z,5.03
2019-02-27T07:27:11.247Z,5.40
2019-02-27T07:29:39.076Z,5.37
2019-02-27T07:32:06.967Z,5.70
2019-02-27T07:34:34.878Z,5.60
2019-02-27T07:37:02.881Z,5.20
2019-02-27T07:39:32.761Z,5.80
2019-02-27T07:42:00.527Z,5.43
2019-02-27T07:44:28.437Z,6.10
2019-02-27T07:46:57.449Z,5.63
2019-02-27T07:49:28.365Z,5.77
2019-02-27T07:51:57.956Z,6.00
2019-02-27T07:54:28.833Z,5.20
2019-02-27T07:56:54.786Z,5.93
2019-02-27T07:59:22.768Z,5.73
2019-02-27T08:01:50.654Z,5.47
2019-02-27T08:04:19.508Z,6.43
2019-02-27T08:06:48.319Z,6.20
2019-02-27T08:09:16.184Z,6.00
2019-02-27T08:11:47.152Z,6.53
2019-02-27T08:14:13.776Z,5.80
2019-02-27T08:16:41.665Z,6.53
2019-02-27T08:19:11.555Z,6.00
2019-02-27T08:21:39.342Z,5.90
2019-02-27T08:24:07.679Z,5.97
2019-02-27T08:26:36.446Z,5.73
2019-02-27T08:29:04.838Z,6.43
2019-02-27T08:31:32.822Z,5.60
2019-02-27T08:34:00.866Z,6.30
2019-02-27T08:36:28.746Z,5.67
2019-02-27T08:38:56.681Z,6.03
2019-02-27T08:41:24.707Z,6.73
2019-02-27T08:43:52.660Z,6.27
2019-02-27T08:46:20.531Z,6.17
2019-02-27T08:48:50.189Z,7.63
2019-02-27T08:51:18.200Z,6.70
2019-02-27T08:53:46.096Z,6.33
2019-02-27T08:56:13.927Z,7.47
2019-02-27T08:58:41.816Z,6.40
2019-02-27T09:01:10.176Z,6.73
2019-02-27T09:03:38.419Z,6.37
2019-02-27T09:06:06.320Z,7.00
2019-02-27T09:08:34.197Z,6.50
2019-02-27T09:11:05.513Z,6.70
2019-02-27T09:13:31.767Z,6.57
2019-02-27T09:15:59.685Z,6.10
2019-02-27T09:18:27.660Z,6.00
2019-02-27T09:20:55.555Z,7.00
2019-02-27T09:23:23.428Z,5.83
2019-02-27T09:25:57.038Z,7.13
2019-02-27T09:28:21.013Z,7.90
2019-02-27T09:30:48.971Z,8.63
2019-02-27T09:33:19.826Z,6.67
2019-02-27T09:35:46.762Z,7.10
2019-02-27T09:38:14.635Z,6.17
2019-02-27T09:40:42.580Z,5.83
2019-02-27T09:43:11.697Z,6.50
2019-02-27T09:45:39.667Z,5.43
2019-02-27T09:48:09.395Z,6.33
2019-02-27T09:50:38.031Z,5.83
2019-02-27T09:53:05.962Z,6.40
2019-02-27T09:55:33.968Z,5.90
2019-02-27T09:58:01.759Z,6.20
2019-02-27T10:00:30.775Z,5.30
2019-02-27T10:02:59.915Z,6.53
2019-02-27T10:05:27.902Z,5.87
2019-02-27T10:07:57.454Z,6.37
2019-02-27T10:10:25.546Z,5.90
2019-02-27T10:12:53.462Z,5.80
2019-02-27T10:15:22.531Z,7.03
2019-02-27T10:17:51.108Z,5.67
2019-02-27T10:20:18.991Z,5.37
2019-02-27T10:22:46.996Z,6.37
2019-02-27T10:25:14.887Z,5.43
2019-02-27T10:27:42.815Z,6.13
2019-02-27T10:30:11.713Z,5.87
2019-02-27T10:32:39.922Z,6.77
2019-02-27T10:35:07.830Z,5.53
2019-02-27T10:37:35.805Z,6.27
2019-02-27T10:40:04.928Z,5.83
2019-02-27T10:42:32.759Z,6.77
2019-02-27T10:45:00.430Z,5.60
2019-02-27T10:47:28.348Z,5.87
2019-02-27T10:49:56.155Z,5.40
2019-02-27T10:52:24.316Z,6.33
2019-02-27T10:54:52.942Z,5.85
2019-02-27T10:57:20.786Z,5.90
2019-02-27T10:59:48.733Z,6.22
2019-02-27T11:02:16.678Z,5.80
2019-02-27T11:04:44.573Z,7.35
2019-02-27T11:07:13.232Z,6.78
2019-02-27T11:09:42.435Z,6.00
2019-02-27T11:12:10.333Z,5.90
2019-02-27T11:14:38.099Z,6.05
2019-02-27T11:17:06.013Z,5.60
2019-02-27T11:19:34.876Z,5.58
2019-02-27T11:22:02.820Z,6.47
2019-02-27T11:24:30.729Z,6.08
2019-02-27T11:26:58.642Z,6.12
2019-02-27T11:29:26.510Z,5.72
2019-02-27T11:31:54.391Z,6.08
2019-02-27T11:34:22.248Z,5.85
2019-02-27T11:36:50.101Z,6.37
2019-02-27T11:39:18.056Z,5.83
2019-02-27T11:41:46.062Z,6.97
2019-02-27T11:44:15.651Z,6.60
2019-02-27T11:46:43.584Z,5.75
2019-02-27T11:49:12.504Z,5.25
2019-02-27T11:51:40.396Z,6.05
2019-02-27T11:54:09.101Z,6.47
2019-02-27T11:56:37.052Z,5.58
2019-02-27T11:59:06.057Z,6.15
2019-02-27T12:01:34.075Z,5.67
2019-02-27T12:04:01.957Z,5.40
2019-02-27T12:06:29.939Z,5.70
2019-02-27T12:08:59.712Z,6.00
2019-02-27T12:11:27.501Z,6.10
2019-02-27T12:13:55.364Z,6.22
2019-02-27T12:16:23.610Z,6.00
2019-02-27T12:18:51.619Z,5.67
2019-02-27T12:21:19.475Z,6.45
2019-02-27T12:23:47.331Z,5.65
2019-02-27T12:26:15.347Z,6.00
2019-02-27T12:28:43.199Z,5.65
2019-02-27T12:31:14.235Z,9.20
2019-02-27T12:33:40.765Z,5.50
2019-02-27T12:36:09.038Z,5.63
2019-02-27T12:38:39.312Z,5.63
2019-02-27T12:41:06.714Z,6.22
2019-02-27T12:43:34.668Z,5.58
2019-02-27T12:46:02.606Z,5.70
2019-02-27T12:48:30.400Z,5.58
2019-02-27T12:50:58.174Z,5.65
2019-02-27T12:53:26.111Z,6.83
2019-02-27T12:55:54.026Z,5.35
2019-02-27T12:58:24.415Z,5.70
2019-02-27T13:00:51.562Z,5.58
2019-02-27T13:03:19.452Z,5.80
2019-02-27T13:05:47.416Z,5.63
2019-02-27T13:08:16.322Z,5.80
2019-02-27T13:10:44.999Z,5.57
2019-02-27T13:13:12.864Z,6.33
2019-02-27T13:15:41.102Z,5.73
2019-02-27T13:18:09.607Z,5.87
2019-02-27T13:20:37.483Z,5.80
2019-02-27T13:23:05.589Z,6.10
2019-02-27T13:25:33.425Z,5.43
2019-02-27T13:28:01.385Z,5.97
2019-02-27T13:30:29.407Z,6.13
2019-02-27T13:33:00.771Z,7.30
2019-02-27T13:35:28.457Z,6.03
2019-02-27T13:37:56.719Z,6.20
2019-02-27T13:40:24.623Z,5.73
2019-02-27T13:42:53.570Z,8.87
2019-02-27T13:45:22.578Z,6.00
2019-02-27T13:47:50.488Z,6.73
2019-02-27T13:50:22.402Z,5.50
2019-02-27T13:52:50.762Z,5.93
2019-02-27T13:55:18.695Z,8.60
2019-02-27T13:57:46.534Z,14.57
2019-02-27T14:00:20.424Z,5.30
2019-02-27T14:02:45.534Z,5.33
2019-02-27T14:05:13.390Z,5.53
2019-02-27T14:07:41.368Z,5.90
2019-02-27T14:10:09.343Z,5.20
2019-02-27T14:12:37.298Z,5.53
2019-02-27T14:15:05.854Z,5.63
2019-02-27T14:17:33.769Z,5.57
2019-02-27T14:20:01.662Z,5.63
2019-02-27T14:22:29.757Z,5.60
2019-02-27T14:24:58.376Z,5.50
2019-02-27T14:27:26.455Z,5.50
2019-02-27T14:29:54.535Z,5.80
2019-02-27T14:32:22.522Z,5.90
2019-02-27T14:34:50.371Z,5.30
2019-02-27T14:37:18.492Z,5.70
2019-02-27T14:39:46.693Z,5.70
2019-02-27T14:42:14.562Z,5.43
2019-02-27T14:44:42.516Z,5.43
2019-02-27T14:47:10.410Z,6.10
2019-02-27T14:49:38.363Z,5.43
2019-02-27T14:52:07.504Z,5.73
2019-02-27T14:54:35.402Z,5.30
2019-02-27T14:57:03.191Z,5.10
2019-02-27T14:59:32.121Z,5.50
2019-02-27T15:01:59.888Z,5.33
2019-02-27T15:04:27.710Z,6.17
2019-02-27T15:06:55.640Z,5.20
2019-02-27T15:09:23.548Z,5.70
2019-02-27T15:11:51.529Z,5.40
2019-02-27T15:14:19.423Z,4.93
2019-02-27T15:16:49.305Z,5.43
2019-02-27T15:19:18.883Z,4.83
2019-02-27T15:21:47.363Z,5.27
2019-02-27T15:24:15.360Z,5.47
2019-02-27T15:26:45.363Z,5.40
2019-02-27T15:29:12.909Z,5.60
2019-02-27T15:31:40.891Z,5.23
2019-02-27T15:34:11.727Z,5.00
2019-02-27T15:36:38.544Z,6.17
2019-02-27T15:39:06.862Z,5.50
2019-02-27T15:41:35.466Z,5.13
2019-02-27T15:44:03.881Z,5.10
2019-02-27T15:46:31.786Z,6.50
2019-02-27T15:49:00.412Z,6.00
2019-02-27T15:51:32.252Z,5.30
2019-02-27T15:53:59.972Z,5.77
2019-02-27T15:56:27.964Z,5.10
2019-02-27T15:58:56.144Z,5.53
2019-02-27T16:01:24.818Z,5.87
2019-02-27T16:03:53.711Z,5.50
2019-02-27T16:06:21.624Z,5.73
2019-02-27T16:08:49.323Z,5.60
2019-02-27T16:11:17.393Z,5.90
2019-02-27T16:13:45.431Z,6.50
2019-02-27T16:16:13.359Z,6.50
2019-02-27T16:18:41.217Z,6.00
2019-02-27T16:21:09.219Z,6.83
2019-02-27T16:23:37.483Z,6.67
2019-02-27T16:26:06.032Z,6.60
2019-02-27T16:28:33.993Z,6.17
2019-02-27T16:31:05.910Z,7.00
2019-02-27T16:33:31.803Z,6.43
2019-02-27T16:35:59.867Z,6.47
2019-02-27T16:38:28.375Z,6.50
2019-02-27T16:40:57.686Z,6.30
2019-02-27T16:43:25.759Z,6.67
2019-02-27T16:45:53.575Z,6.77
2019-02-27T16:48:21.466Z,6.60
2019-02-27T16:50:49.471Z,6.83
2019-02-27T16:53:19.459Z,6.60
2019-02-27T16:55:48.419Z,7.37
2019-02-27T16:58:16.442Z,7.53
2019-02-27T17:00:44.461Z,6.50
2019-02-27T17:03:13.415Z,6.63
2019-02-27T17:05:43.115Z,8.83
2019-02-27T17:08:11.553Z,7.57
2019-02-27T17:10:39.397Z,7.37
2019-02-27T17:13:07.227Z,8.30
2019-02-27T17:15:36.302Z,7.80
2019-02-27T17:18:04.444Z,7.77
2019-02-27T17:20:32.442Z,8.47
2019-02-27T17:23:00.389Z,7.40
2019-02-27T17:25:29.997Z,8.00
2019-02-27T17:27:58.007Z,6.37
2019-02-27T17:30:27.222Z,6.57
2019-02-27T17:32:55.112Z,7.17
2019-02-27T17:35:24.226Z,7.07
2019-02-27T17:37:52.060Z,7.33
2019-02-27T17:40:19.951Z,7.93
2019-02-27T17:42:53.000Z,8.27
2019-02-27T17:45:17.939Z,8.20
2019-02-27T17:47:45.780Z,9.17
2019-02-27T17:50:14.433Z,9.53
2019-02-27T17:52:42.329Z,9.77
2019-02-27T17:55:10.192Z,10.33
2019-02-27T17:57:39.361Z,10.37
2019-02-27T18:00:09.712Z,10.70
2019-02-27T18:02:37.583Z,11.77
2019-02-27T18:05:05.561Z,11.20
2019-02-27T18:07:34.520Z,11.63
2019-02-27T18:10:02.755Z,15.30
2019-02-27T18:12:30.660Z,18.00
2019-02-27T18:14:58.615Z,20.67
2019-02-27T18:17:26.568Z,21.30
2019-02-27T18:19:54.465Z,22.20
2019-02-27T18:22:22.368Z,25.93
2019-02-27T18:24:50.320Z,23.90
2019-02-27T18:27:18.146Z,27.47
2019-02-27T18:29:49.126Z,25.93
2019-02-27T18:32:17.004Z,24.47
2019-02-27T18:34:44.914Z,23.43
2019-02-27T18:37:14.490Z,20.57
2019-02-27T18:39:42.531Z,21.85
2019-02-27T18:42:10.485Z,20.93
2019-02-27T18:44:41.472Z,19.33
2019-02-27T18:47:08.257Z,18.03
2019-02-27T18:49:36.413Z,16.03
2019-02-27T18:52:06.615Z,15.83
2019-02-27T18:54:33.931Z,15.27
2019-02-27T18:57:03.846Z,15.97
2019-02-27T18:59:33.447Z,13.93
2019-02-27T19:02:01.241Z,12.90
2019-02-27T19:04:29.244Z,12.17
2019-02-27T19:06:57.047Z,14.83
2019-02-27T19:09:24.911Z,14.17
2019-02-27T19:11:52.761Z,15.47
2019-02-27T19:14:20.656Z,15.27
2019-02-27T19:16:48.511Z,17.03
2019-02-27T19:19:16.460Z,14.87
2019-02-27T19:21:44.156Z,15.30
2019-02-27T19:24:12.172Z,15.07
2019-02-27T19:26:41.712Z,14.97
2019-02-27T19:29:10.087Z,13.77
2019-02-27T19:31:38.127Z,13.87
2019-02-27T19:34:07.448Z,14.33
2019-02-27T19:36:35.810Z,14.83
2019-02-27T19:39:04.901Z,15.90
2019-02-27T19:41:38.744Z,15.40
2019-02-27T19:44:02.863Z,14.17
2019-02-27T19:46:30.806Z,13.93
2019-02-27T19:49:00.819Z,14.13
2019-02-27T19:51:28.489Z,13.93
2019-02-27T19:53:56.363Z,13.40
2019-02-27T19:56:24.320Z,14.43
2019-02-27T19:58:52.262Z,12.70
2019-02-27T20:01:20.382Z,12.00
2019-02-27T20:03:48.302Z,11.57
2019-02-27T20:06:16.422Z,12.33
2019-02-27T20:08:45.393Z,13.93
2019-02-27T20:11:13.793Z,12.23
2019-02-27T20:13:41.891Z,10.97
2019-02-27T20:16:09.920Z,11.33
2019-02-27T20:18:40.515Z,11.23
2019-02-27T20:21:10.499Z,11.10
2019-02-27T20:23:37.337Z,11.37
2019-02-27T20:26:13.856Z,11.93
2019-02-27T20:28:36.485Z,13.77
2019-02-27T20:31:05.645Z,12.53
2019-02-27T20:33:37.166Z,13.00
2019-02-27T20:36:05.443Z,12.70
2019-02-27T20:38:34.986Z,11.97
2019-02-27T20:41:06.073Z,11.87
2019-02-27T20:43:35.991Z,12.33
2019-02-27T20:46:05.626Z,11.97
2019-02-27T20:48:36.164Z,12.07
2019-02-27T20:51:06.718Z,11.97
2019-02-27T20:53:35.292Z,12.73
2019-02-27T20:56:03.757Z,15.77
2019-02-27T20:58:31.726Z,11.50
2019-02-27T21:00:59.772Z,13.57
2019-02-27T21:03:28.069Z,13.23
2019-02-27T21:05:56.209Z,12.90
2019-02-27T21:08:24.084Z,11.93
2019-02-27T21:10:55.245Z,14.87
2019-02-27T21:13:21.658Z,12.57
2019-02-27T21:15:49.527Z,13.37
2019-02-27T21:18:17.630Z,14.20
2019-02-27T21:20:46.269Z,13.57
2019-02-27T21:23:14.481Z,13.27
2019-02-27T21:25:42.481Z,13.13
2019-02-27T21:28:10.610Z,13.30
2019-02-27T21:30:38.362Z,12.83
2019-02-27T21:33:08.313Z,12.23
2019-02-27T21:35:35.743Z,11.47
2019-02-27T21:38:03.690Z,11.00
2019-02-27T21:40:33.397Z,11.50
2019-02-27T21:43:01.271Z,11.87
2019-02-27T21:45:29.230Z,11.30
2019-02-27T21:47:57.243Z,10.83
2019-02-27T21:50:25.001Z,9.77
2019-02-27T21:52:54.325Z,10.20
2019-02-27T21:55:22.566Z,10.13
2019-02-27T21:57:50.423Z,10.73
2019-02-27T22:00:21.042Z,9.40
2019-02-27T22:02:49.146Z,9.50
2019-02-27T22:05:18.975Z,9.43
2019-02-27T22:07:46.793Z,10.33
2019-02-27T22:10:19.061Z,10.57
2019-02-27T22:12:44.582Z,11.07
2019-02-27T22:15:14.605Z,9.90
2019-02-27T22:17:42.613Z,9.10
2019-02-27T22:20:10.413Z,9.30
2019-02-27T22:22:41.105Z,9.97
2019-02-27T22:25:08.052Z,9.50
2019-02-27T22:27:36.071Z,9.60
2019-02-27T22:30:04.869Z,9.37
2019-02-27T22:32:32.843Z,9.10
2019-02-27T22:35:02.813Z,8.80
2019-02-27T22:37:30.494Z,9.43
2019-02-27T22:39:58.449Z,8.30
2019-02-27T22:42:26.373Z,8.27
2019-02-27T22:44:54.301Z,7.87
2019-02-27T22:47:22.688Z,8.37
2019-02-27T22:49:50.542Z,9.13
2019-02-27T22:52:19.191Z,9.17
2019-02-27T22:54:48.169Z,8.90
2019-02-27T22:57:15.994Z,9.40
2019-02-27T22:59:43.861Z,9.10
2019-02-27T23:02:12.077Z,8.63
2019-02-27T23:04:40.237Z,8.83
2019-02-27T23:07:08.079Z,9.00
2019-02-27T23:09:36.907Z,8.20
2019-02-27T23:12:04.939Z,7.70
2019-02-27T23:14:32.889Z,7.70
2019-02-27T23:17:01.337Z,8.03
2019-02-27T23:19:29.367Z,7.63
2019-02-27T23:21:58.416Z,7.17
2019-02-27T23:24:26.360Z,8.60
2019-02-27T23:26:54.765Z,7.63
2019-02-27T23:29:23.575Z,6.50
2019-02-27T23:31:54.765Z,7.17
2019-02-27T23:34:21.137Z,6.37
2019-02-27T23:36:49.138Z,6.80
2019-02-27T23:39:17.216Z,7.20
2019-02-27T23:41:45.152Z,7.07
2019-02-27T23:44:13.132Z,6.87
2019-02-27T23:46:48.704Z,7.53
2019-02-27T23:49:11.127Z,9.37
2019-02-27T23:51:39.198Z,7.17
2019-02-27T23:54:07.105Z,7.60
2019-02-27T23:56:35.238Z,6.97
2019-02-27T23:59:03.401Z,7.50
